sensor_id;sensor_type;location;lat;lon;timestamp;temperature;humidity
324;DHT22;149;51.094;17.002;2023-05-07T00:00:14;8.60;99.90
324;DHT22;149;51.094;17.002;2023-05-07T00:02:46;8.70;99.90
324;DHT22;149;51.094;17.002;2023-05-07T00:05:16;8.80;99.90
324;DHT22;149;51.094;17.002;2023-05-07T00:07:46;8.80;99.90
324;DHT22;149;51.094;17.002;2023-05-07T00:10:13;8.70;99.90
324;DHT22;149;51.094;17.002;2023-05-07T00:12:40;8.70;99.90
324;DHT22;149;51.094;17.002;2023-05-07T00:15:08;8.70;99.90
324;DHT22;149;51.094;17.002;2023-05-07T00:17:35;8.70;99.90
324;DHT22;149;51.094;17.002;2023-05-07T00:20:03;8.70;99.90
324;DHT22;149;51.094;17.002;2023-05-07T00:22:31;8.70;99.90
324;DHT22;149;51.094;17.002;2023-05-07T00:24:59;8.70;99.90
324;DHT22;149;51.094;17.002;2023-05-07T00:27:26;8.80;99.90
324;DHT22;149;51.094;17.002;2023-05-07T00:29:53;8.80;99.90
324;DHT22;149;51.094;17.002;2023-05-07T00:32:21;8.80;99.90
324;DHT22;149;51.094;17.002;2023-05-07T00:34:48;8.70;99.90
324;DHT22;149;51.094;17.002;2023-05-07T00:37:15;8.80;99.90
324;DHT22;149;51.094;17.002;2023-05-07T00:39:43;8.90;99.90
324;DHT22;149;51.094;17.002;2023-05-07T00:42:10;9.00;99.90
324;DHT22;149;51.094;17.002;2023-05-07T00:44:40;8.90;99.90
324;DHT22;149;51.094;17.002;2023-05-07T00:47:09;8.80;99.90
324;DHT22;149;51.094;17.002;2023-05-07T00:49:44;8.90;99.90
324;DHT22;149;51.094;17.002;2023-05-07T00:52:16;9.00;99.90
324;DHT22;149;51.094;17.002;2023-05-07T00:54:43;8.90;99.90
324;DHT22;149;51.094;17.002;2023-05-07T00:57:11;8.90;99.90
324;DHT22;149;51.094;17.002;2023-05-07T00:59:38;8.90;99.90
324;DHT22;149;51.094;17.002;2023-05-07T01:02:06;9.00;99.90
324;DHT22;149;51.094;17.002;2023-05-07T01:04:33;9.00;99.90
324;DHT22;149;51.094;17.002;2023-05-07T01:07:01;9.00;99.90
324;DHT22;149;51.094;17.002;2023-05-07T01:09:29;9.00;99.90
324;DHT22;149;51.094;17.002;2023-05-07T01:11:58;8.80;99.90
324;DHT22;149;51.094;17.002;2023-05-07T01:14:28;8.80;99.90
324;DHT22;149;51.094;17.002;2023-05-07T01:16:58;8.70;99.90
324;DHT22;149;51.094;17.002;2023-05-07T01:19:26;8.70;99.90
324;DHT22;149;51.094;17.002;2023-05-07T01:22:01;8.70;99.90
324;DHT22;149;51.094;17.002;2023-05-07T01:24:30;8.70;99.90
324;DHT22;149;51.094;17.002;2023-05-07T01:26:57;8.60;99.90
324;DHT22;149;51.094;17.002;2023-05-07T01:29:24;8.50;99.90
324;DHT22;149;51.094;17.002;2023-05-07T01:31:51;8.60;99.90
324;DHT22;149;51.094;17.002;2023-05-07T01:34:21;8.60;99.90
324;DHT22;149;51.094;17.002;2023-05-07T01:36:49;8.40;99.90
324;DHT22;149;51.094;17.002;2023-05-07T01:39:16;8.40;99.90
324;DHT22;149;51.094;17.002;2023-05-07T01:41:43;8.40;99.90
324;DHT22;149;51.094;17.002;2023-05-07T01:44:12;8.40;99.90
324;DHT22;149;51.094;17.002;2023-05-07T01:46:40;8.30;99.90
324;DHT22;149;51.094;17.002;2023-05-07T01:49:07;8.40;99.90
324;DHT22;149;51.094;17.002;2023-05-07T01:51:36;8.40;99.90
324;DHT22;149;51.094;17.002;2023-05-07T01:54:03;8.40;99.90
324;DHT22;149;51.094;17.002;2023-05-07T01:56:31;8.50;99.90
324;DHT22;149;51.094;17.002;2023-05-07T01:58:57;8.40;99.90
324;DHT22;149;51.094;17.002;2023-05-07T02:01:24;8.40;99.90
324;DHT22;149;51.094;17.002;2023-05-07T02:03:52;8.40;99.90
324;DHT22;149;51.094;17.002;2023-05-07T02:06:20;8.50;99.90
324;DHT22;149;51.094;17.002;2023-05-07T02:08:47;8.50;99.90
324;DHT22;149;51.094;17.002;2023-05-07T02:11:15;8.50;99.90
324;DHT22;149;51.094;17.002;2023-05-07T02:13:41;8.50;99.90
324;DHT22;149;51.094;17.002;2023-05-07T02:16:08;8.50;99.90
324;DHT22;149;51.094;17.002;2023-05-07T02:18:38;8.50;99.90
324;DHT22;149;51.094;17.002;2023-05-07T02:21:05;8.60;99.90
324;DHT22;149;51.094;17.002;2023-05-07T02:23:31;8.40;99.90
324;DHT22;149;51.094;17.002;2023-05-07T02:25:59;8.50;99.90
324;DHT22;149;51.094;17.002;2023-05-07T02:28:27;8.50;99.90
324;DHT22;149;51.094;17.002;2023-05-07T02:30:53;8.50;99.90
324;DHT22;149;51.094;17.002;2023-05-07T02:33:21;8.50;99.90
324;DHT22;149;51.094;17.002;2023-05-07T02:35:47;8.50;99.90
324;DHT22;149;51.094;17.002;2023-05-07T02:38:14;8.50;99.90
324;DHT22;149;51.094;17.002;2023-05-07T02:40:41;8.60;99.90
324;DHT22;149;51.094;17.002;2023-05-07T02:43:09;8.50;99.90
324;DHT22;149;51.094;17.002;2023-05-07T02:45:36;8.50;99.90
324;DHT22;149;51.094;17.002;2023-05-07T02:48:05;8.50;99.90
324;DHT22;149;51.094;17.002;2023-05-07T02:50:34;8.40;99.90
324;DHT22;149;51.094;17.002;2023-05-07T02:53:01;8.50;99.90
324;DHT22;149;51.094;17.002;2023-05-07T02:55:30;8.40;99.90
324;DHT22;149;51.094;17.002;2023-05-07T02:57:58;8.50;99.90
324;DHT22;149;51.094;17.002;2023-05-07T03:00:25;8.50;99.90
324;DHT22;149;51.094;17.002;2023-05-07T03:02:54;8.50;99.90
324;DHT22;149;51.094;17.002;2023-05-07T03:05:21;8.50;99.90
324;DHT22;149;51.094;17.002;2023-05-07T03:07:48;8.50;99.90
324;DHT22;149;51.094;17.002;2023-05-07T03:10:16;8.40;99.90
324;DHT22;149;51.094;17.002;2023-05-07T03:12:43;8.40;99.90
324;DHT22;149;51.094;17.002;2023-05-07T03:15:11;8.30;99.90
324;DHT22;149;51.094;17.002;2023-05-07T03:17:39;8.30;99.90
324;DHT22;149;51.094;17.002;2023-05-07T03:20:07;8.30;99.90
324;DHT22;149;51.094;17.002;2023-05-07T03:22:35;8.40;99.90
324;DHT22;149;51.094;17.002;2023-05-07T03:25:03;8.40;99.90
324;DHT22;149;51.094;17.002;2023-05-07T03:27:30;8.40;99.90
324;DHT22;149;51.094;17.002;2023-05-07T03:29:56;8.40;99.90
324;DHT22;149;51.094;17.002;2023-05-07T03:32:23;8.30;99.90
324;DHT22;149;51.094;17.002;2023-05-07T03:34:50;8.40;99.90
324;DHT22;149;51.094;17.002;2023-05-07T03:37:18;8.40;99.90
324;DHT22;149;51.094;17.002;2023-05-07T03:39:45;8.40;99.90
324;DHT22;149;51.094;17.002;2023-05-07T03:42:11;8.40;99.90
324;DHT22;149;51.094;17.002;2023-05-07T03:44:38;8.30;99.90
324;DHT22;149;51.094;17.002;2023-05-07T03:47:05;8.30;99.90
324;DHT22;149;51.094;17.002;2023-05-07T03:49:32;8.30;99.90
324;DHT22;149;51.094;17.002;2023-05-07T03:52:00;8.30;99.90
324;DHT22;149;51.094;17.002;2023-05-07T03:54:27;8.30;99.90
324;DHT22;149;51.094;17.002;2023-05-07T03:56:54;8.30;99.90
324;DHT22;149;51.094;17.002;2023-05-07T03:59:21;8.30;99.90
324;DHT22;149;51.094;17.002;2023-05-07T04:01:48;8.40;99.90
324;DHT22;149;51.094;17.002;2023-05-07T04:04:18;8.30;99.90
324;DHT22;149;51.094;17.002;2023-05-07T04:06:45;8.40;99.90
324;DHT22;149;51.094;17.002;2023-05-07T04:09:13;8.40;99.90
324;DHT22;149;51.094;17.002;2023-05-07T04:11:40;8.50;99.90
324;DHT22;149;51.094;17.002;2023-05-07T04:14:08;8.60;99.90
324;DHT22;149;51.094;17.002;2023-05-07T04:16:35;8.60;99.90
324;DHT22;149;51.094;17.002;2023-05-07T04:19:03;8.60;99.90
324;DHT22;149;51.094;17.002;2023-05-07T04:21:30;8.50;99.90
324;DHT22;149;51.094;17.002;2023-05-07T04:23:58;8.50;99.90
324;DHT22;149;51.094;17.002;2023-05-07T04:26:25;8.50;99.90
324;DHT22;149;51.094;17.002;2023-05-07T04:28:54;8.40;99.90
324;DHT22;149;51.094;17.002;2023-05-07T04:31:20;8.30;99.90
324;DHT22;149;51.094;17.002;2023-05-07T04:33:48;8.30;99.90
324;DHT22;149;51.094;17.002;2023-05-07T04:36:15;8.30;99.90
324;DHT22;149;51.094;17.002;2023-05-07T04:38:44;8.60;99.90
324;DHT22;149;51.094;17.002;2023-05-07T04:41:12;8.50;99.90
324;DHT22;149;51.094;17.002;2023-05-07T04:43:40;8.50;99.90
324;DHT22;149;51.094;17.002;2023-05-07T04:46:08;8.40;99.90
324;DHT22;149;51.094;17.002;2023-05-07T04:48:35;8.60;99.90
324;DHT22;149;51.094;17.002;2023-05-07T04:51:02;8.60;99.90
324;DHT22;149;51.094;17.002;2023-05-07T04:53:29;8.50;99.90
324;DHT22;149;51.094;17.002;2023-05-07T04:55:57;8.50;99.90
324;DHT22;149;51.094;17.002;2023-05-07T04:58:24;8.60;99.90
324;DHT22;149;51.094;17.002;2023-05-07T05:00:51;8.70;99.90
324;DHT22;149;51.094;17.002;2023-05-07T05:03:18;8.70;99.90
324;DHT22;149;51.094;17.002;2023-05-07T05:05:46;8.70;99.90
324;DHT22;149;51.094;17.002;2023-05-07T05:08:13;8.80;99.90
324;DHT22;149;51.094;17.002;2023-05-07T05:10:40;8.70;99.90
324;DHT22;149;51.094;17.002;2023-05-07T05:13:08;8.80;99.90
324;DHT22;149;51.094;17.002;2023-05-07T05:15:36;8.90;99.90
324;DHT22;149;51.094;17.002;2023-05-07T05:18:04;9.00;99.90
324;DHT22;149;51.094;17.002;2023-05-07T05:20:33;8.80;99.90
324;DHT22;149;51.094;17.002;2023-05-07T05:23:00;8.90;99.90
324;DHT22;149;51.094;17.002;2023-05-07T05:25:27;8.90;99.90
324;DHT22;149;51.094;17.002;2023-05-07T05:27:55;9.00;99.90
324;DHT22;149;51.094;17.002;2023-05-07T05:30:22;9.00;99.90
324;DHT22;149;51.094;17.002;2023-05-07T05:32:48;8.90;99.90
324;DHT22;149;51.094;17.002;2023-05-07T05:35:16;8.90;99.90
324;DHT22;149;51.094;17.002;2023-05-07T05:37:42;8.80;99.90
324;DHT22;149;51.094;17.002;2023-05-07T05:40:10;8.80;99.90
324;DHT22;149;51.094;17.002;2023-05-07T05:42:38;8.80;99.90
324;DHT22;149;51.094;17.002;2023-05-07T05:45:06;8.80;99.90
324;DHT22;149;51.094;17.002;2023-05-07T05:47:34;8.80;99.90
324;DHT22;149;51.094;17.002;2023-05-07T05:50:01;8.80;99.90
324;DHT22;149;51.094;17.002;2023-05-07T05:52:27;8.90;99.90
324;DHT22;149;51.094;17.002;2023-05-07T05:54:54;8.80;99.90
324;DHT22;149;51.094;17.002;2023-05-07T05:57:23;8.80;99.90
324;DHT22;149;51.094;17.002;2023-05-07T05:59:53;8.80;99.90
324;DHT22;149;51.094;17.002;2023-05-07T06:02:21;9.00;99.90
324;DHT22;149;51.094;17.002;2023-05-07T06:04:48;9.10;99.90
324;DHT22;149;51.094;17.002;2023-05-07T06:07:17;9.00;99.90
324;DHT22;149;51.094;17.002;2023-05-07T06:09:44;9.00;99.90
324;DHT22;149;51.094;17.002;2023-05-07T06:12:11;8.80;99.90
324;DHT22;149;51.094;17.002;2023-05-07T06:14:38;9.00;99.90
324;DHT22;149;51.094;17.002;2023-05-07T06:17:05;9.30;99.90
324;DHT22;149;51.094;17.002;2023-05-07T06:19:33;9.60;99.90
324;DHT22;149;51.094;17.002;2023-05-07T06:22:03;9.50;99.90
324;DHT22;149;51.094;17.002;2023-05-07T06:24:29;9.40;99.90
324;DHT22;149;51.094;17.002;2023-05-07T06:26:59;9.30;99.90
324;DHT22;149;51.094;17.002;2023-05-07T06:29:29;9.00;99.90
324;DHT22;149;51.094;17.002;2023-05-07T06:32:09;9.00;99.90
324;DHT22;149;51.094;17.002;2023-05-07T06:34:38;9.10;99.90
324;DHT22;149;51.094;17.002;2023-05-07T06:37:06;9.40;99.90
324;DHT22;149;51.094;17.002;2023-05-07T06:39:33;9.40;99.90
324;DHT22;149;51.094;17.002;2023-05-07T06:42:02;9.10;99.90
324;DHT22;149;51.094;17.002;2023-05-07T06:44:33;9.10;99.90
324;DHT22;149;51.094;17.002;2023-05-07T06:47:01;9.10;99.90
324;DHT22;149;51.094;17.002;2023-05-07T06:49:29;9.20;99.90
324;DHT22;149;51.094;17.002;2023-05-07T06:51:56;9.20;99.90
324;DHT22;149;51.094;17.002;2023-05-07T06:54:23;9.30;99.90
324;DHT22;149;51.094;17.002;2023-05-07T06:56:50;9.40;99.90
324;DHT22;149;51.094;17.002;2023-05-07T06:59:17;9.30;99.90
324;DHT22;149;51.094;17.002;2023-05-07T07:01:45;8.90;99.90
324;DHT22;149;51.094;17.002;2023-05-07T07:04:12;8.80;99.90
324;DHT22;149;51.094;17.002;2023-05-07T07:06:39;8.90;99.90
324;DHT22;149;51.094;17.002;2023-05-07T07:09:09;9.00;99.90
324;DHT22;149;51.094;17.002;2023-05-07T07:11:36;9.00;99.90
324;DHT22;149;51.094;17.002;2023-05-07T07:14:02;9.10;99.90
324;DHT22;149;51.094;17.002;2023-05-07T07:16:34;9.20;99.90
324;DHT22;149;51.094;17.002;2023-05-07T07:19:01;9.00;99.90
324;DHT22;149;51.094;17.002;2023-05-07T07:21:28;9.10;99.90
324;DHT22;149;51.094;17.002;2023-05-07T07:24:00;9.20;99.90
324;DHT22;149;51.094;17.002;2023-05-07T07:26:27;9.20;99.90
324;DHT22;149;51.094;17.002;2023-05-07T07:28:53;9.20;99.90
324;DHT22;149;51.094;17.002;2023-05-07T07:31:21;9.40;99.90
324;DHT22;149;51.094;17.002;2023-05-07T07:33:48;9.60;99.90
324;DHT22;149;51.094;17.002;2023-05-07T07:36:18;9.80;99.90
324;DHT22;149;51.094;17.002;2023-05-07T07:38:47;9.90;99.90
324;DHT22;149;51.094;17.002;2023-05-07T07:41:16;10.00;99.90
324;DHT22;149;51.094;17.002;2023-05-07T07:43:43;10.20;99.90
324;DHT22;149;51.094;17.002;2023-05-07T07:46:10;10.40;99.90
324;DHT22;149;51.094;17.002;2023-05-07T07:48:37;10.70;99.90
324;DHT22;149;51.094;17.002;2023-05-07T07:51:06;10.70;99.90
324;DHT22;149;51.094;17.002;2023-05-07T07:53:33;10.60;99.90
324;DHT22;149;51.094;17.002;2023-05-07T07:56:00;10.30;99.90
324;DHT22;149;51.094;17.002;2023-05-07T07:58:31;10.30;99.90
324;DHT22;149;51.094;17.002;2023-05-07T08:00:58;10.20;99.90
324;DHT22;149;51.094;17.002;2023-05-07T08:03:25;10.10;99.90
324;DHT22;149;51.094;17.002;2023-05-07T08:05:52;9.90;99.90
324;DHT22;149;51.094;17.002;2023-05-07T08:08:20;9.70;99.90
324;DHT22;149;51.094;17.002;2023-05-07T08:10:47;9.40;99.90
324;DHT22;149;51.094;17.002;2023-05-07T08:13:17;9.20;99.90
324;DHT22;149;51.094;17.002;2023-05-07T08:15:44;9.20;99.90
324;DHT22;149;51.094;17.002;2023-05-07T08:18:11;9.10;99.90
324;DHT22;149;51.094;17.002;2023-05-07T08:20:39;9.30;99.90
324;DHT22;149;51.094;17.002;2023-05-07T08:23:07;9.20;99.90
324;DHT22;149;51.094;17.002;2023-05-07T08:25:34;9.00;99.90
324;DHT22;149;51.094;17.002;2023-05-07T08:28:01;9.00;99.90
324;DHT22;149;51.094;17.002;2023-05-07T08:30:30;9.10;99.90
324;DHT22;149;51.094;17.002;2023-05-07T08:32:59;9.10;99.90
324;DHT22;149;51.094;17.002;2023-05-07T08:35:26;9.00;99.90
324;DHT22;149;51.094;17.002;2023-05-07T08:37:54;9.10;99.90
324;DHT22;149;51.094;17.002;2023-05-07T08:40:25;9.20;99.90
324;DHT22;149;51.094;17.002;2023-05-07T08:42:53;8.90;99.90
324;DHT22;149;51.094;17.002;2023-05-07T08:45:20;9.00;99.90
324;DHT22;149;51.094;17.002;2023-05-07T08:47:51;9.10;99.90
324;DHT22;149;51.094;17.002;2023-05-07T08:50:20;9.40;99.90
324;DHT22;149;51.094;17.002;2023-05-07T08:52:47;9.30;99.90
324;DHT22;149;51.094;17.002;2023-05-07T08:55:14;9.30;99.90
324;DHT22;149;51.094;17.002;2023-05-07T08:57:42;9.20;99.90
324;DHT22;149;51.094;17.002;2023-05-07T09:00:09;9.00;99.90
324;DHT22;149;51.094;17.002;2023-05-07T09:02:38;9.20;99.90
324;DHT22;149;51.094;17.002;2023-05-07T09:05:06;9.00;99.90
324;DHT22;149;51.094;17.002;2023-05-07T09:07:33;8.80;99.90
324;DHT22;149;51.094;17.002;2023-05-07T09:10:05;8.70;99.90
324;DHT22;149;51.094;17.002;2023-05-07T09:12:33;8.70;99.90
324;DHT22;149;51.094;17.002;2023-05-07T09:15:02;8.70;99.90
324;DHT22;149;51.094;17.002;2023-05-07T09:17:29;8.90;99.90
324;DHT22;149;51.094;17.002;2023-05-07T09:19:56;9.10;99.90
324;DHT22;149;51.094;17.002;2023-05-07T09:22:31;9.20;99.90
324;DHT22;149;51.094;17.002;2023-05-07T09:24:59;9.40;99.90
324;DHT22;149;51.094;17.002;2023-05-07T09:27:26;9.40;99.90
324;DHT22;149;51.094;17.002;2023-05-07T09:29:54;9.30;99.90
324;DHT22;149;51.094;17.002;2023-05-07T09:32:22;9.30;99.90
324;DHT22;149;51.094;17.002;2023-05-07T09:34:49;9.30;99.90
324;DHT22;149;51.094;17.002;2023-05-07T09:37:16;9.30;99.90
324;DHT22;149;51.094;17.002;2023-05-07T09:39:50;9.50;99.90
324;DHT22;149;51.094;17.002;2023-05-07T09:42:23;9.50;99.90
324;DHT22;149;51.094;17.002;2023-05-07T09:44:50;9.50;99.90
324;DHT22;149;51.094;17.002;2023-05-07T09:47:23;9.60;99.90
324;DHT22;149;51.094;17.002;2023-05-07T09:49:56;9.80;99.90
324;DHT22;149;51.094;17.002;2023-05-07T09:52:24;9.90;99.90
324;DHT22;149;51.094;17.002;2023-05-07T09:54:57;9.60;99.90
324;DHT22;149;51.094;17.002;2023-05-07T09:57:26;9.40;99.90
324;DHT22;149;51.094;17.002;2023-05-07T09:59:54;9.70;99.90
324;DHT22;149;51.094;17.002;2023-05-07T10:02:23;10.30;99.90
324;DHT22;149;51.094;17.002;2023-05-07T10:04:52;10.80;99.90
324;DHT22;149;51.094;17.002;2023-05-07T10:07:23;10.60;99.90
324;DHT22;149;51.094;17.002;2023-05-07T10:09:51;11.20;99.90
324;DHT22;149;51.094;17.002;2023-05-07T10:12:19;11.60;99.90
324;DHT22;149;51.094;17.002;2023-05-07T10:14:47;11.40;99.90
324;DHT22;149;51.094;17.002;2023-05-07T10:17:16;11.60;99.90
324;DHT22;149;51.094;17.002;2023-05-07T10:19:45;11.50;99.90
324;DHT22;149;51.094;17.002;2023-05-07T10:22:14;11.50;99.90
324;DHT22;149;51.094;17.002;2023-05-07T10:24:42;11.30;99.90
324;DHT22;149;51.094;17.002;2023-05-07T10:27:16;11.30;99.90
324;DHT22;149;51.094;17.002;2023-05-07T10:35:08;11.80;99.90
324;DHT22;149;51.094;17.002;2023-05-07T10:37:36;12.10;99.90
324;DHT22;149;51.094;17.002;2023-05-07T10:40:04;12.10;99.90
324;DHT22;149;51.094;17.002;2023-05-07T10:42:34;11.80;99.90
324;DHT22;149;51.094;17.002;2023-05-07T10:45:13;11.60;99.90
324;DHT22;149;51.094;17.002;2023-05-07T10:48:09;11.40;99.90
324;DHT22;149;51.094;17.002;2023-05-07T10:51:19;11.20;99.90
324;DHT22;149;51.094;17.002;2023-05-07T10:53:47;10.80;99.90
324;DHT22;149;51.094;17.002;2023-05-07T10:58:43;11.00;99.90
324;DHT22;149;51.094;17.002;2023-05-07T11:01:11;11.10;99.90
324;DHT22;149;51.094;17.002;2023-05-07T11:04:12;11.30;99.90
324;DHT22;149;51.094;17.002;2023-05-07T11:06:40;11.00;99.90
324;DHT22;149;51.094;17.002;2023-05-07T11:09:07;11.00;99.90
324;DHT22;149;51.094;17.002;2023-05-07T11:11:50;11.00;99.90
324;DHT22;149;51.094;17.002;2023-05-07T11:14:58;11.30;99.90
324;DHT22;149;51.094;17.002;2023-05-07T11:17:24;11.30;99.90
324;DHT22;149;51.094;17.002;2023-05-07T11:19:53;11.30;99.90
324;DHT22;149;51.094;17.002;2023-05-07T11:22:47;11.20;99.90
324;DHT22;149;51.094;17.002;2023-05-07T11:25:18;11.40;99.90
324;DHT22;149;51.094;17.002;2023-05-07T11:27:49;11.80;99.90
324;DHT22;149;51.094;17.002;2023-05-07T11:30:19;12.00;99.90
324;DHT22;149;51.094;17.002;2023-05-07T11:32:47;12.00;99.90
324;DHT22;149;51.094;17.002;2023-05-07T11:35:15;12.00;99.90
324;DHT22;149;51.094;17.002;2023-05-07T11:37:44;11.40;99.90
324;DHT22;149;51.094;17.002;2023-05-07T11:40:12;11.20;99.90
324;DHT22;149;51.094;17.002;2023-05-07T11:42:41;10.90;99.90
324;DHT22;149;51.094;17.002;2023-05-07T11:45:10;10.80;99.90
324;DHT22;149;51.094;17.002;2023-05-07T11:47:37;10.90;99.90
324;DHT22;149;51.094;17.002;2023-05-07T11:50:06;11.00;99.90
324;DHT22;149;51.094;17.002;2023-05-07T11:52:37;11.30;99.90
324;DHT22;149;51.094;17.002;2023-05-07T11:55:06;11.80;99.90
324;DHT22;149;51.094;17.002;2023-05-07T11:57:33;11.70;99.90
324;DHT22;149;51.094;17.002;2023-05-07T12:00:02;11.80;99.90
324;DHT22;149;51.094;17.002;2023-05-07T12:02:31;11.40;99.90
324;DHT22;149;51.094;17.002;2023-05-07T12:05:00;11.30;99.90
324;DHT22;149;51.094;17.002;2023-05-07T12:07:27;11.20;99.90
324;DHT22;149;51.094;17.002;2023-05-07T12:09:54;11.40;99.90
324;DHT22;149;51.094;17.002;2023-05-07T12:12:21;11.60;99.90
324;DHT22;149;51.094;17.002;2023-05-07T12:14:48;11.40;99.90
324;DHT22;149;51.094;17.002;2023-05-07T12:17:16;11.50;99.90
324;DHT22;149;51.094;17.002;2023-05-07T12:19:44;11.60;99.90
324;DHT22;149;51.094;17.002;2023-05-07T12:22:11;11.60;99.90
324;DHT22;149;51.094;17.002;2023-05-07T12:27:09;11.70;99.90
324;DHT22;149;51.094;17.002;2023-05-07T12:29:36;11.30;99.90
324;DHT22;149;51.094;17.002;2023-05-07T12:32:06;11.20;99.90
324;DHT22;149;51.094;17.002;2023-05-07T12:34:39;11.20;99.90
324;DHT22;149;51.094;17.002;2023-05-07T12:37:11;11.10;99.90
324;DHT22;149;51.094;17.002;2023-05-07T12:39:47;11.00;99.90
324;DHT22;149;51.094;17.002;2023-05-07T12:42:19;10.90;99.90
324;DHT22;149;51.094;17.002;2023-05-07T12:44:46;10.80;99.90
324;DHT22;149;51.094;17.002;2023-05-07T12:47:14;11.30;99.90
324;DHT22;149;51.094;17.002;2023-05-07T12:49:42;11.40;99.90
324;DHT22;149;51.094;17.002;2023-05-07T12:52:11;11.30;99.90
324;DHT22;149;51.094;17.002;2023-05-07T12:54:38;11.30;99.90
324;DHT22;149;51.094;17.002;2023-05-07T12:57:09;11.30;99.90
324;DHT22;149;51.094;17.002;2023-05-07T12:59:37;11.20;99.90
324;DHT22;149;51.094;17.002;2023-05-07T13:02:05;11.10;99.90
324;DHT22;149;51.094;17.002;2023-05-07T13:04:32;11.30;99.90
324;DHT22;149;51.094;17.002;2023-05-07T13:07:00;11.50;99.90
324;DHT22;149;51.094;17.002;2023-05-07T13:09:28;11.40;99.90
324;DHT22;149;51.094;17.002;2023-05-07T13:11:58;11.30;99.90
324;DHT22;149;51.094;17.002;2023-05-07T13:14:28;11.10;99.90
324;DHT22;149;51.094;17.002;2023-05-07T13:16:55;11.10;99.90
324;DHT22;149;51.094;17.002;2023-05-07T13:19:22;10.90;99.90
324;DHT22;149;51.094;17.002;2023-05-07T13:21:49;10.90;99.90
324;DHT22;149;51.094;17.002;2023-05-07T13:24:16;10.80;99.90
324;DHT22;149;51.094;17.002;2023-05-07T13:26:43;10.80;99.90
324;DHT22;149;51.094;17.002;2023-05-07T13:29:11;11.00;99.90
324;DHT22;149;51.094;17.002;2023-05-07T13:31:38;11.30;99.90
324;DHT22;149;51.094;17.002;2023-05-07T13:34:09;11.00;99.90
324;DHT22;149;51.094;17.002;2023-05-07T13:36:37;10.80;99.90
324;DHT22;149;51.094;17.002;2023-05-07T13:39:06;10.70;99.90
324;DHT22;149;51.094;17.002;2023-05-07T13:41:33;10.60;99.90
324;DHT22;149;51.094;17.002;2023-05-07T13:44:00;10.70;99.90
324;DHT22;149;51.094;17.002;2023-05-07T13:46:28;10.80;99.90
324;DHT22;149;51.094;17.002;2023-05-07T13:48:56;10.90;99.90
324;DHT22;149;51.094;17.002;2023-05-07T13:51:23;10.90;99.90
324;DHT22;149;51.094;17.002;2023-05-07T13:53:50;11.00;99.90
324;DHT22;149;51.094;17.002;2023-05-07T13:56:17;10.90;99.90
324;DHT22;149;51.094;17.002;2023-05-07T13:58:43;10.90;99.90
324;DHT22;149;51.094;17.002;2023-05-07T14:01:26;10.70;99.90
324;DHT22;149;51.094;17.002;2023-05-07T14:03:53;10.70;99.90
324;DHT22;149;51.094;17.002;2023-05-07T14:06:20;10.60;99.90
324;DHT22;149;51.094;17.002;2023-05-07T14:08:49;10.60;99.90
324;DHT22;149;51.094;17.002;2023-05-07T14:11:15;10.60;99.90
324;DHT22;149;51.094;17.002;2023-05-07T14:13:44;10.70;99.90
324;DHT22;149;51.094;17.002;2023-05-07T14:16:11;10.60;99.90
324;DHT22;149;51.094;17.002;2023-05-07T14:18:40;10.50;99.90
324;DHT22;149;51.094;17.002;2023-05-07T14:21:10;10.70;99.90
324;DHT22;149;51.094;17.002;2023-05-07T14:23:38;10.80;99.90
324;DHT22;149;51.094;17.002;2023-05-07T14:26:05;10.80;99.90
324;DHT22;149;51.094;17.002;2023-05-07T14:28:32;10.80;99.90
324;DHT22;149;51.094;17.002;2023-05-07T14:30:59;10.50;99.90
324;DHT22;149;51.094;17.002;2023-05-07T14:33:39;10.40;99.90
324;DHT22;149;51.094;17.002;2023-05-07T14:36:08;10.30;99.90
324;DHT22;149;51.094;17.002;2023-05-07T14:38:35;10.40;99.90
324;DHT22;149;51.094;17.002;2023-05-07T14:41:05;10.40;99.90
324;DHT22;149;51.094;17.002;2023-05-07T14:43:32;10.60;99.90
324;DHT22;149;51.094;17.002;2023-05-07T14:45:59;10.50;99.90
324;DHT22;149;51.094;17.002;2023-05-07T14:48:27;10.60;99.90
324;DHT22;149;51.094;17.002;2023-05-07T14:50:54;10.90;99.90
324;DHT22;149;51.094;17.002;2023-05-07T14:53:21;10.70;99.90
324;DHT22;149;51.094;17.002;2023-05-07T14:55:49;10.80;99.90
324;DHT22;149;51.094;17.002;2023-05-07T14:58:16;11.00;99.90
324;DHT22;149;51.094;17.002;2023-05-07T15:00:43;11.00;99.90
324;DHT22;149;51.094;17.002;2023-05-07T15:03:10;10.90;99.90
324;DHT22;149;51.094;17.002;2023-05-07T15:05:37;10.90;99.90
324;DHT22;149;51.094;17.002;2023-05-07T15:08:05;10.90;99.90
324;DHT22;149;51.094;17.002;2023-05-07T15:10:36;10.90;99.90
324;DHT22;149;51.094;17.002;2023-05-07T15:13:09;10.90;99.90
324;DHT22;149;51.094;17.002;2023-05-07T15:15:42;10.90;99.90
324;DHT22;149;51.094;17.002;2023-05-07T15:18:11;10.70;99.90
324;DHT22;149;51.094;17.002;2023-05-07T15:20:38;10.70;99.90
324;DHT22;149;51.094;17.002;2023-05-07T15:23:07;10.90;99.90
324;DHT22;149;51.094;17.002;2023-05-07T15:25:36;11.00;99.90
324;DHT22;149;51.094;17.002;2023-05-07T15:28:03;11.10;99.90
324;DHT22;149;51.094;17.002;2023-05-07T15:30:32;11.00;99.90
324;DHT22;149;51.094;17.002;2023-05-07T15:32:59;11.10;99.90
324;DHT22;149;51.094;17.002;2023-05-07T15:35:26;11.10;99.90
324;DHT22;149;51.094;17.002;2023-05-07T15:37:54;11.00;99.90
324;DHT22;149;51.094;17.002;2023-05-07T15:40:21;10.90;99.90
324;DHT22;149;51.094;17.002;2023-05-07T15:42:49;10.90;99.90
324;DHT22;149;51.094;17.002;2023-05-07T15:45:16;10.60;99.90
324;DHT22;149;51.094;17.002;2023-05-07T15:47:43;10.60;99.90
324;DHT22;149;51.094;17.002;2023-05-07T15:50:10;10.60;99.90
324;DHT22;149;51.094;17.002;2023-05-07T15:52:37;10.70;99.90
324;DHT22;149;51.094;17.002;2023-05-07T15:55:07;10.60;99.90
324;DHT22;149;51.094;17.002;2023-05-07T15:57:37;10.60;99.90
324;DHT22;149;51.094;17.002;2023-05-07T16:00:05;10.50;99.90
324;DHT22;149;51.094;17.002;2023-05-07T16:02:34;10.40;99.90
324;DHT22;149;51.094;17.002;2023-05-07T16:05:06;10.50;99.90
324;DHT22;149;51.094;17.002;2023-05-07T16:07:37;10.60;99.90
324;DHT22;149;51.094;17.002;2023-05-07T16:10:04;10.60;99.90
324;DHT22;149;51.094;17.002;2023-05-07T16:12:32;10.40;99.90
324;DHT22;149;51.094;17.002;2023-05-07T16:15:02;10.40;99.90
324;DHT22;149;51.094;17.002;2023-05-07T16:17:34;10.40;99.90
324;DHT22;149;51.094;17.002;2023-05-07T16:20:02;10.30;99.90
324;DHT22;149;51.094;17.002;2023-05-07T16:22:32;10.30;99.90
324;DHT22;149;51.094;17.002;2023-05-07T16:24:59;10.50;99.90
324;DHT22;149;51.094;17.002;2023-05-07T16:27:28;10.40;99.90
324;DHT22;149;51.094;17.002;2023-05-07T16:29:55;10.40;99.90
324;DHT22;149;51.094;17.002;2023-05-07T16:32:24;10.30;99.90
324;DHT22;149;51.094;17.002;2023-05-07T16:34:58;10.30;99.90
324;DHT22;149;51.094;17.002;2023-05-07T16:37:25;10.40;99.90
324;DHT22;149;51.094;17.002;2023-05-07T16:39:56;10.30;99.90
324;DHT22;149;51.094;17.002;2023-05-07T16:42:24;10.20;99.90
324;DHT22;149;51.094;17.002;2023-05-07T16:44:53;10.30;99.90